Share

Gurgaon, India

5:41 PM IST on April 24, 2014 (GMT +0530)
Indira Gandhi International (VIDP) Elev 764 ft | 28.57 °N, 77.12 °E | Change Station

Current weather conditions updated 41 minutes ago

Haze
Haze
100 °F
Feels Like 100 °F
N
12
Wind Variable Wind from NW
Sunrise 5:48 AM
Sunset 6:52 PM
Moon Waning Crescent

Tomorrow is forecast to be Warmer than today.

Pressure 29.68 in
Visibility 2.5 miles
Clouds
Dew Point 41 °F
Humidity 13%
Rainfall 0.00 in
Snow Depth Not available.
UV Not available.
Pollen Not available.
Air Quality Not available.
Flu Activity Not available.
METAR VIDP 241130Z 31010KT 4000 HZ NSC 38/05 Q1005 NOSIG

More Conditions Fewer Conditions

Pressure 29.68 in
Visibility 2.5 miles
Clouds
Dew Point 41 °F
Humidity 13%
Rainfall 0.00 in
Snow Depth Not available.
UV Not available.
Pollen Not available.
Air Quality Not available.
Flu Activity Not available.
METAR VIDP 241130Z 31010KT 4000 HZ NSC 38/05 Q1005 NOSIG

More Conditions Fewer Conditions

10-Day Weather Forecast

Almanac

Astronomy

Apr. 24, 2014 Rise Set
Actual Time 5:48 AM IST 6:52 PM IST
Civil Twilight 5:23 AM IST 7:17 PM IST
Nautical Twilight 4:54 AM IST 7:46 PM IST
Astronomical Twilight 4:24 AM IST 8:16 PM IST
Moon 2:13 AM IST 2:02 PM IST
Length of Visible Light 13h 53m
Length of Day
13h 04m
Tomorrow will be 1m 31s longer.
Waning Crescent, 26% of the Moon is Illuminated
Today
Waning Crescent
Apr 29
New
May 6
First Quarter
May 14
Full
May 21
Last Quarter

Yesterday's Extremes

Country Highs Country Lows

Community

  • Stacked
    Stacked
  • clouds approaching Red Sox Nation
    clouds approaching Red Sox Nation
  • Balance
    Balance
  • Nestled In
    Nestled In
  • Stunning Sunrise
    Stunning Sunrise

WunderPhotos

Upload Photos

1,704,591 photos uploaded!

WunderBlogs® & News

Nearby

Snow Depth

Not available.

Coastal Water Temperatures

Place Temperature
No Stations Reporting

Earthquake Activity

City Distance Mag. Time & Date
No recent earthquake activity has been reported nearby.
Minimum magnitude displayed is 2.5.

Nearby Weather Stations

Station Location Temp. Heat Index Dew Point Humidity Wind Precip. Elev Updated Type
New Delhi - GK2, New Delhi 96.3 °F 95 °F 56 °F 26% WNW  at  2.0 mph 0.00 in / hr 810 ft 5:41 PM IST Rapid Fire

Show More Stations Show Fewer Stations

What do you think?

We're not finished. Please let us know what you like, what you don't like, and what you are still missing.